Time;durP1;ratioP1;P1;durP2;ratioP2;P2;SDS_P1;SDS_P2;PMS_P1;PMS_P2;Temp;Humidity;BMP_temperature;BMP_pressure;BME280_temperature;BME280_humidity;BME280_pressure;Samples;Min_cycle;Max_cycle;Signal;HPM_P1;HPM_P2
2023/01/08 06:02:16;;;;;;;1.98;0.65;;;9.70;99.90;;;;;;5482385;23;20045;-71
2023/01/08 06:04:43;;;;;;;1.23;0.70;;;9.70;99.90;;;;;;4887889;29;20056;-73
2023/01/08 06:07:08;;;;;;;2.45;0.90;;;9.60;99.90;;;;;;4889227;29;20088;-72
2023/01/08 06:09:34;;;;;;;2.85;1.20;;;9.50;99.90;;;;;;4889449;29;20029;-72
2023/01/08 06:12:00;;;;;;;2.97;0.80;;;9.40;99.90;;;;;;4888945;29;20052;-71
2023/01/08 06:14:25;;;;;;;4.20;1.10;;;9.30;99.90;;;;;;4903795;29;20032;-70
2023/01/08 06:16:51;;;;;;;1.98;0.80;;;9.30;99.90;;;;;;4888158;29;20041;-72
2023/01/08 06:19:17;;;;;;;2.33;0.80;;;9.20;99.90;;;;;;4889184;29;20037;-70
2023/01/08 06:21:44;;;;;;;1.70;0.70;;;9.20;99.90;;;;;;4888397;29;20330;-71
2023/01/08 06:24:10;;;;;;;1.30;0.50;;;9.20;99.90;;;;;;4889548;29;20083;-72
2023/01/08 06:26:35;;;;;;;2.55;1.02;;;9.20;99.90;;;;;;4888523;29;20430;-72
2023/01/08 06:29:01;;;;;;;1.83;0.60;;;9.20;99.90;;;;;;4888349;29;20259;-71
2023/01/08 06:31:27;;;;;;;1.88;0.90;;;9.20;99.90;;;;;;4888874;29;20214;-72
2023/01/08 06:33:52;;;;;;;1.63;0.70;;;9.20;99.90;;;;;;4888402;29;20036;-71
2023/01/08 06:36:18;;;;;;;2.60;0.90;;;9.10;99.90;;;;;;4887877;29;20035;-75
2023/01/08 06:38:44;;;;;;;1.90;0.85;;;9.10;99.90;;;;;;4888290;29;20048;-73
2023/01/08 06:41:10;;;;;;;2.40;0.95;;;9.10;99.90;;;;;;4889428;29;20097;-73
2023/01/08 06:43:37;;;;;;;2.03;0.98;;;9.10;99.90;;;;;;4892017;29;20083;-72
2023/01/08 06:46:04;;;;;;;1.85;1.00;;;9.10;99.90;;;;;;4906932;29;20036;-72
2023/01/08 06:48:30;;;;;;;1.67;0.80;;;9.10;99.90;;;;;;4907583;29;20044;-71
2023/01/08 06:50:58;;;;;;;1.65;0.88;;;9.10;99.90;;;;;;4907081;29;20032;-71
2023/01/08 06:53:24;;;;;;;;;;;9.30;99.90;;;;;;4907543;29;20215;-71
2023/01/08 06:55:55;;;;;;;2.17;0.68;;;9.30;99.90;;;;;;4921187;29;19917;-71
2023/01/08 06:58:22;;;;;;;1.75;0.57;;;9.40;99.90;;;;;;4907419;29;20045;-71
2023/01/08 07:00:48;;;;;;;1.58;0.70;;;9.40;99.90;;;;;;4907118;29;20029;-71
2023/01/08 07:03:14;;;;;;;2.67;0.60;;;9.40;99.90;;;;;;4918212;29;20216;-71
2023/01/08 07:05:39;;;;;;;1.85;0.60;;;9.40;99.90;;;;;;4888642;29;20101;-71
2023/01/08 07:08:05;;;;;;;1.33;0.60;;;9.40;99.90;;;;;;4888172;29;20021;-70
2023/01/08 07:10:33;;;;;;;2.38;0.50;;;9.40;99.90;;;;;;4876781;29;20043;-71
2023/01/08 07:12:58;;;;;;;2.50;0.40;;;9.40;99.90;;;;;;4869284;29;20033;-70
2023/01/08 07:15:24;;;;;;;1.38;0.43;;;9.40;99.90;;;;;;4869507;29;20057;-69
2023/01/08 07:17:50;;;;;;;1.17;0.43;;;9.40;99.90;;;;;;4899165;29;20259;-73
2023/01/08 07:20:15;;;;;;;0.77;0.30;;;9.40;99.90;;;;;;4869770;29;20037;-72
2023/01/08 07:22:41;;;;;;;2.45;0.63;;;9.30;99.90;;;;;;4869753;29;20030;-72
2023/01/08 07:25:07;;;;;;;2.67;0.70;;;9.30;99.90;;;;;;4869271;29;20085;-72
2023/01/08 07:27:33;;;;;;;2.90;0.80;;;9.30;99.90;;;;;;4869736;29;20208;-70
2023/01/08 07:29:59;;;;;;;1.50;0.70;;;9.30;99.90;;;;;;4869275;29;20063;-71
2023/01/08 07:32:24;;;;;;;1.27;0.40;;;9.30;99.90;;;;;;4869044;29;20045;-71
2023/01/08 07:34:53;;;;;;;1.55;0.77;;;9.30;99.90;;;;;;4869188;29;20048;-70
2023/01/08 07:37:18;;;;;;;1.45;0.50;;;9.30;99.90;;;;;;4883973;29;20328;-72
2023/01/08 07:39:45;;;;;;;1.23;0.55;;;9.30;99.90;;;;;;4869613;29;20037;-72
2023/01/08 07:42:10;;;;;;;1.65;0.60;;;9.20;99.90;;;;;;4869364;29;20370;-73
2023/01/08 07:44:36;;;;;;;2.35;0.60;;;9.10;99.90;;;;;;4869362;29;20041;-69
2023/01/08 07:47:02;;;;;;;1.40;0.60;;;9.10;99.90;;;;;;4869106;29;20041;-70
2023/01/08 07:49:28;;;;;;;1.92;0.60;;;9.00;99.90;;;;;;4868928;29;20033;-73
2023/01/08 07:51:53;;;;;;;1.52;0.60;;;9.00;99.90;;;;;;4868525;29;20089;-76
2023/01/08 07:54:19;;;;;;;1.90;0.60;;;9.00;99.90;;;;;;4869421;29;20210;-71
2023/01/08 07:56:45;;;;;;;1.25;0.50;;;9.00;99.90;;;;;;4869173;29;20041;-70
2023/01/08 07:59:10;;;;;;;0.80;0.40;;;9.00;99.90;;;;;;4869351;29;20057;-69
2023/01/08 08:01:36;;;;;;;1.42;0.63;;;9.00;99.90;;;;;;4868914;29;20044;-72
2023/01/08 08:04:02;;;;;;;1.80;0.68;;;9.00;99.90;;;;;;4868791;29;20092;-71
2023/01/08 08:06:28;;;;;;;1.50;0.50;;;9.00;99.90;;;;;;4869191;29;20060;-69
2023/01/08 08:08:56;;;;;;;2.38;0.50;;;9.00;99.90;;;;;;4868973;29;20040;-71
2023/01/08 08:11:22;;;;;;;1.85;0.55;;;8.90;99.90;;;;;;4869161;29;20226;-73
2023/01/08 08:13:49;;;;;;;1.65;0.60;;;8.90;99.90;;;;;;4868589;29;20029;-72
2023/01/08 08:16:15;;;;;;;1.88;0.80;;;8.90;99.90;;;;;;4871132;29;20029;-69
2023/01/08 08:18:40;;;;;;;1.83;0.60;;;8.90;99.90;;;;;;4871622;29;20028;-71
2023/01/08 08:21:06;;;;;;;1.70;0.70;;;8.90;99.90;;;;;;4868517;29;20025;-73
2023/01/08 08:23:32;;;;;;;2.40;0.70;;;8.90;99.90;;;;;;4869259;29;20316;-72
2023/01/08 08:25:58;;;;;;;3.50;0.85;;;8.80;99.90;;;;;;4870300;29;20082;-72
2023/01/08 08:28:23;;;;;;;2.03;0.95;;;8.80;99.90;;;;;;4870160;29;20021;-72
2023/01/08 08:30:50;;;;;;;2.05;0.68;;;8.80;99.90;;;;;;4868650;29;20384;-76
2023/01/08 08:33:19;;;;;;;1.67;0.70;;;8.80;99.90;;;;;;4883048;29;20061;-71
2023/01/08 08:35:49;;;;;;;2.72;0.73;;;8.80;99.90;;;;;;4868882;29;20037;-71
2023/01/08 08:38:16;;;;;;;1.60;0.70;;;8.80;99.90;;;;;;4869145;29;20101;-71
2023/01/08 08:40:42;;;;;;;1.70;0.80;;;8.80;99.90;;;;;;4870463;29;20030;-71
2023/01/08 08:43:08;;;;;;;2.15;0.65;;;8.80;99.90;;;;;;4871870;29;20114;-70
2023/01/08 08:45:35;;;;;;;1.65;0.68;;;8.80;99.90;;;;;;4874202;29;20104;-70
2023/01/08 08:48:01;;;;;;;2.80;0.70;;;8.80;99.90;;;;;;4875150;29;20037;-71
2023/01/08 08:50:27;;;;;;;1.92;1.08;;;8.80;99.90;;;;;;4872664;29;20034;-70
2023/01/08 08:52:59;;;;;;;1.90;0.80;;;8.80;99.90;;;;;;4871551;29;20030;-71
2023/01/08 08:55:25;;;;;;;2.38;0.80;;;8.80;99.90;;;;;;4872191;29;20264;-72
2023/01/08 08:57:51;;;;;;;1.42;0.60;;;8.90;99.90;;;;;;4871859;29;20334;-71
2023/01/08 09:00:18;;;;;;;2.47;0.80;;;8.90;99.90;;;;;;4870982;29;20030;-74
2023/01/08 09:02:43;;;;;;;1.85;0.70;;;8.90;99.90;;;;;;4870663;29;20049;-72
2023/01/08 09:05:10;;;;;;;2.67;0.50;;;9.00;99.90;;;;;;4870911;29;20025;-71
2023/01/08 09:07:36;;;;;;;2.30;0.80;;;9.00;99.90;;;;;;4871688;29;20026;-72
2023/01/08 09:10:03;;;;;;;1.63;0.73;;;9.00;99.90;;;;;;4883379;29;20369;-72
2023/01/08 09:12:29;;;;;;;3.30;0.80;;;9.10;99.90;;;;;;4891581;29;20025;-70
2023/01/08 09:14:55;;;;;;;1.05;0.55;;;9.10;99.90;;;;;;4890153;29;20097;-72
2023/01/08 09:17:22;;;;;;;2.22;0.65;;;9.20;99.90;;;;;;4890601;29;20040;-72
2023/01/08 09:19:47;;;;;;;1.48;0.60;;;9.20;99.90;;;;;;4886259;29;20100;-72
2023/01/08 09:22:14;;;;;;;1.60;0.50;;;9.20;99.90;;;;;;4889707;29;20073;-70
2023/01/08 09:24:40;;;;;;;1.75;0.70;;;9.20;99.90;;;;;;4890005;29;20218;-72
2023/01/08 09:27:06;;;;;;;2.65;0.52;;;9.30;99.90;;;;;;4889747;29;20037;-73
2023/01/08 09:29:31;;;;;;;2.28;0.77;;;9.30;99.90;;;;;;4890329;29;20259;-72
2023/01/08 09:32:00;;;;;;;2.42;0.90;;;9.30;99.90;;;;;;4889440;29;20037;-72
2023/01/08 09:34:26;;;;;;;2.53;0.98;;;9.30;99.90;;;;;;4889914;29;20060;-69
2023/01/08 09:36:56;;;;;;;1.67;0.50;;;9.40;99.90;;;;;;4889522;29;20033;-73
2023/01/08 09:39:21;;;;;;;1.45;0.55;;;9.40;99.90;;;;;;4904413;29;20029;-70
2023/01/08 09:41:48;;;;;;;2.00;0.70;;;9.50;99.90;;;;;;4889937;29;20071;-72
2023/01/08 09:44:19;;;;;;;1.70;0.82;;;9.60;99.90;;;;;;4888997;29;20323;-71
2023/01/08 09:46:46;;;;;;;1.60;0.60;;;9.60;99.90;;;;;;4889885;29;20039;-75
2023/01/08 09:49:20;;;;;;;1.30;0.50;;;9.60;99.90;;;;;;4888190;29;20322;-74
2023/01/08 09:51:46;;;;;;;1.27;0.50;;;9.60;99.90;;;;;;4889865;29;20049;-73
2023/01/08 09:54:15;;;;;;;2.53;0.80;;;9.60;99.90;;;;;;4889126;29;20270;-74
2023/01/08 09:56:44;;;;;;;1.77;0.70;;;9.70;99.90;;;;;;4888959;29;20358;-73
2023/01/08 09:59:17;;;;;;;1.58;0.95;;;9.70;99.90;;;;;;4889004;29;20048;-72
2023/01/08 10:01:44;;;;;;;1.65;0.60;;;9.70;99.90;;;;;;4889142;29;20068;-71
2023/01/08 10:04:17;;;;;;;2.30;1.10;;;9.70;99.90;;;;;;4889294;29;20041;-71
2023/01/08 10:06:58;;;;;;;2.13;0.73;;;9.80;99.90;;;;;;4889699;29;20338;-72
2023/01/08 10:09:31;;;;;;;1.55;0.55;;;9.80;99.90;;;;;;4889474;29;20029;-71
2023/01/08 10:12:01;;;;;;;1.85;0.80;;;9.80;99.90;;;;;;4889318;29;20076;-72
2023/01/08 10:14:35;;;;;;;1.83;0.80;;;9.90;99.90;;;;;;4890059;29;20041;-73
2023/01/08 10:17:13;;;;;;;2.55;0.85;;;9.90;99.90;;;;;;4888932;29;20108;-72
2023/01/08 10:19:38;;;;;;;1.58;0.75;;;9.90;99.90;;;;;;4887015;29;20271;-72
2023/01/08 10:22:14;;;;;;;1.80;0.60;;;10.00;99.90;;;;;;4888963;29;20043;-75
2023/01/08 10:24:40;;;;;;;2.15;0.70;;;10.00;99.90;;;;;;4889500;29;20033;-71
2023/01/08 10:27:15;;;;;;;1.95;0.60;;;10.00;99.90;;;;;;4888124;29;20044;-72
2023/01/08 10:29:41;;;;;;;2.45;0.70;;;10.00;99.90;;;;;;4886491;29;20089;-72
2023/01/08 10:32:26;;;;;;;1.45;0.55;;;10.10;99.90;;;;;;4888409;29;20029;-74
2023/01/08 10:34:54;;;;;;;2.75;0.70;;;10.10;99.90;;;;;;4888908;29;20227;-72
2023/01/08 10:37:38;;;;;;;;;;;10.20;99.90;;;;;;4889398;29;20051;-77
2023/01/08 10:40:07;;;;;;;1.17;0.50;;;10.30;99.90;;;;;;4902686;29;20099;-72
2023/01/08 10:42:35;;;;;;;3.35;0.80;;;10.40;99.90;;;;;;4889012;29;20029;-69
2023/01/08 10:45:19;;;;;;;1.48;0.57;;;10.40;99.90;;;;;;4903212;29;20059;-73
2023/01/08 10:47:48;;;;;;;2.22;0.80;;;10.40;99.90;;;;;;4891387;29;20060;-71
2023/01/08 10:50:24;;;;;;;1.83;0.65;;;10.40;99.90;;;;;;4906671;29;20035;-71
2023/01/08 10:52:56;;;;;;;2.08;0.82;;;10.40;99.90;;;;;;4907161;29;20032;-72
2023/01/08 10:55:37;;;;;;;2.35;0.70;;;10.50;99.90;;;;;;4907075;29;20210;-72
2023/01/08 10:58:09;;;;;;;1.42;0.55;;;10.50;99.90;;;;;;4906847;29;20207;-71
2023/01/08 11:00:36;;;;;;;1.77;0.70;;;10.60;99.90;;;;;;4907363;29;20032;-75
2023/01/08 11:03:05;;;;;;;1.40;0.60;;;10.70;99.90;;;;;;4889527;29;20084;-73
2023/01/08 11:05:38;;;;;;;1.83;0.60;;;10.70;99.90;;;;;;4888287;29;20146;-73
2023/01/08 11:08:07;;;;;;;1.35;0.60;;;10.80;99.90;;;;;;4887532;29;20108;-72
2023/01/08 11:10:33;;;;;;;;;;;10.90;99.90;;;;;;4888908;29;20048;-72
2023/01/08 11:13:20;;;;;;;1.30;0.52;;;10.90;99.90;;;;;;4888175;29;19975;-72
2023/01/08 11:16:01;;;;;;;2.85;0.70;;;11.00;99.90;;;;;;4887993;29;20052;-71
2023/01/08 11:18:27;;;;;;;1.15;0.50;;;11.00;99.90;;;;;;4888706;29;20299;-71
2023/01/08 11:21:07;;;;;;;1.38;0.65;;;11.00;99.90;;;;;;4888240;29;20073;-71
2023/01/08 11:23:33;;;;;;;2.22;0.60;;;11.10;99.90;;;;;;4887288;29;20204;-70
2023/01/08 11:26:13;;;;;;;1.35;0.57;;;11.10;99.90;;;;;;4887498;29;20060;-73
2023/01/08 11:28:57;;;;;;;2.53;0.60;;;11.30;99.90;;;;;;4887880;29;20093;-70
2023/01/08 11:31:33;;;;;;;1.70;0.68;;;11.30;99.90;;;;;;4888268;29;20029;-71
2023/01/08 11:34:11;;;;;;;1.00;0.43;;;11.40;99.90;;;;;;4887494;29;20060;-72
2023/01/08 11:36:49;;;;;;;1.55;0.40;;;11.40;99.90;;;;;;4887961;29;20047;-72
2023/01/08 11:39:17;;;;;;;0.70;0.30;;;11.40;99.90;;;;;;4887623;29;20029;-72
2023/01/08 11:41:58;;;;;;;2.70;0.60;;;11.40;99.90;;;;;;4888038;29;20148;-71
2023/01/08 11:44:52;;;;;;;0.55;0.30;;;11.40;99.90;;;;;;4887955;29;20061;-70
2023/01/08 11:47:55;;;;;;;1.90;0.60;;;11.40;99.90;;;;;;4887520;29;20029;-74
2023/01/08 11:50:31;;;;;;;1.98;0.80;;;11.30;99.90;;;;;;4887599;29;20048;-71
2023/01/08 11:53:13;;;;;;;1.48;0.60;;;11.40;99.90;;;;;;4888115;29;20041;-73
2023/01/08 11:55:44;;;;;;;1.90;0.47;;;11.40;99.90;;;;;;4885159;29;20378;-71
2023/01/08 11:58:09;;;;;;;1.67;0.63;;;11.40;99.90;;;;;;4887649;29;20049;-74
2023/01/08 12:00:57;;;;;;;1.95;0.60;;;11.30;99.90;;;;;;4888020;29;20073;-75
2023/01/08 12:03:46;;;;;;;1.17;0.55;;;11.40;99.90;;;;;;4868539;29;20084;-68
2023/01/08 12:06:39;;;;;;;1.40;0.43;;;11.40;99.90;;;;;;4869094;29;20034;-73
2023/01/08 12:09:19;;;;;;;1.20;0.35;;;11.20;99.90;;;;;;4881074;29;20104;-72
2023/01/08 12:12:18;;;;;;;1.52;0.50;;;11.10;99.90;;;;;;4869258;29;20026;-74
2023/01/08 12:15:05;;;;;;;1.23;0.50;;;11.20;99.90;;;;;;4878428;29;20050;-74
2023/01/08 12:17:54;;;;;;;1.23;0.50;;;11.10;99.90;;;;;;4869597;29;20061;-73
2023/01/08 12:20:47;;;;;;;1.15;0.52;;;11.00;99.90;;;;;;4861740;29;20041;-71
2023/01/08 12:23:27;;;;;;;1.15;0.40;;;11.00;99.90;;;;;;4872377;29;20064;-72
2023/01/08 12:26:11;;;;;;;1.52;0.57;;;11.00;99.90;;;;;;4902988;29;20276;-71
2023/01/08 12:29:09;;;;;;;3.13;2.22;;;11.00;99.90;;;;;;4880563;29;20100;-71
2023/01/08 12:31:41;;;;;;;3.58;1.13;;;11.00;99.90;;;;;;4902909;29;20038;-71
2023/01/08 12:34:14;;;;;;;1.25;0.50;;;11.10;99.90;;;;;;4871891;29;20040;-72
2023/01/08 12:36:47;;;;;;;1.35;0.43;;;11.10;99.90;;;;;;4872792;29;20041;-72
2023/01/08 12:39:22;;;;;;;1.67;0.70;;;11.10;99.90;;;;;;4881133;29;20020;-71
2023/01/08 12:41:49;;;;;;;2.47;1.20;;;11.10;99.90;;;;;;4874695;29;20045;-73
2023/01/08 12:44:22;;;;;;;1.88;0.85;;;11.10;99.90;;;;;;4890197;29;20043;-75
2023/01/08 12:46:49;;;;;;;4.35;2.85;;;11.10;99.90;;;;;;4890962;29;20029;-73
2023/01/08 12:49:22;;;;;;;3.28;1.38;;;11.10;99.90;;;;;;4890012;29;20052;-73
2023/01/08 12:52:01;;;;;;;1.80;0.68;;;11.10;99.90;;;;;;4890855;29;20304;-75
2023/01/08 12:54:44;;;;;;;1.25;0.70;;;11.20;99.90;;;;;;4888779;29;20100;-72
2023/01/08 12:57:25;;;;;;;1.40;0.47;;;11.30;99.90;;;;;;4889958;29;20033;-72
2023/01/08 13:00:11;;;;;;;2.38;0.70;;;11.30;99.90;;;;;;4890873;29;20101;-72
2023/01/08 13:02:46;;;;;;;1.38;0.40;;;11.40;99.90;;;;;;4890551;29;20057;-71
2023/01/08 13:05:34;;;;;;;5.20;3.22;;;11.40;99.90;;;;;;4889571;29;20049;-71
2023/01/08 13:08:20;;;;;;;4.03;1.70;;;11.40;99.90;;;;;;4890467;29;20044;-72
2023/01/08 13:10:52;;;;;;;3.38;1.52;;;11.40;99.90;;;;;;4890195;29;20052;-73
2023/01/08 13:13:27;;;;;;;4.22;2.80;;;11.40;99.90;;;;;;4888681;29;20040;-72
2023/01/08 13:16:05;;;;;;;2.53;1.25;;;11.40;99.90;;;;;;4889778;29;20302;-71
2023/01/08 13:18:31;;;;;;;5.32;2.33;;;11.40;99.90;;;;;;4890395;29;20158;-76
2023/01/08 13:21:00;;;;;;;5.07;3.10;;;11.30;99.90;;;;;;4890228;29;20041;-73
2023/01/08 13:23:28;;;;;;;4.57;2.65;;;11.20;99.90;;;;;;4890499;29;20033;-71
2023/01/08 13:25:55;;;;;;;;;;;11.20;99.90;;;;;;4892284;29;20044;-75
2023/01/08 13:28:23;;;;;;;1.48;0.60;;;11.10;99.90;;;;;;4891336;29;19914;-71
2023/01/08 13:30:50;;;;;;;1.45;0.50;;;11.10;99.90;;;;;;4889711;29;20052;-72
2023/01/08 13:33:26;;;;;;;2.60;1.50;;;11.10;99.90;;;;;;4903879;29;20044;-71
2023/01/08 13:36:14;;;;;;;1.48;0.60;;;11.10;99.90;;;;;;4897411;29;20306;-75
2023/01/08 13:38:40;;;;;;;1.30;0.65;;;11.10;99.90;;;;;;4871444;29;20052;-72
2023/01/08 13:41:23;;;;;;;2.03;1.27;;;11.10;99.90;;;;;;4881351;29;20065;-71
2023/01/08 13:44:14;;;;;;;2.70;1.65;;;11.10;99.90;;;;;;4889909;29;20104;-71
2023/01/08 13:46:40;;;;;;;3.00;1.63;;;11.10;99.90;;;;;;4886787;29;20041;-73
2023/01/08 13:49:22;;;;;;;3.08;1.73;;;11.20;99.90;;;;;;4889625;29;20112;-73
2023/01/08 13:51:47;;;;;;;1.80;0.93;;;11.40;99.90;;;;;;4889935;29;20039;-72
2023/01/08 13:54:13;;;;;;;1.98;1.00;;;11.60;99.90;;;;;;4871688;29;20092;-71
2023/01/08 13:56:41;;;;;;;2.13;0.60;;;11.80;99.90;;;;;;4871150;29;20041;-72
2023/01/08 13:59:48;;;;;;;2.30;0.70;;;12.00;99.90;;;;;;4884849;29;20040;-72
2023/01/08 14:02:31;;;;;;;1.80;0.50;;;12.30;99.90;;;;;;4875870;29;20353;-73
2023/01/08 14:04:59;;;;;;;1.30;0.47;;;13.10;99.90;;;;;;4889102;29;20058;-73
2023/01/08 14:07:26;;;;;;;1.33;0.65;;;13.80;99.90;;;;;;4888762;29;20047;-73
2023/01/08 14:09:51;;;;;;;2.30;0.95;;;14.60;99.90;;;;;;4889508;29;20081;-76
2023/01/08 14:12:20;;;;;;;1.52;0.60;;;15.40;99.00;;;;;;4889112;29;20021;-76
2023/01/08 14:14:57;;;;;;;1.30;0.40;;;16.10;96.80;;;;;;4889343;29;20096;-75
2023/01/08 14:17:29;;;;;;;1.38;0.43;;;16.20;95.80;;;;;;4888652;29;20041;-75
2023/01/08 14:19:55;;;;;;;1.50;0.60;;;16.00;95.40;;;;;;4888230;29;20029;-74
2023/01/08 14:22:28;;;;;;;1.33;0.55;;;15.60;95.70;;;;;;4889441;29;20036;-77
2023/01/08 14:24:57;;;;;;;1.42;0.63;;;15.30;96.10;;;;;;4890622;29;20349;-73
2023/01/08 14:27:26;;;;;;;;;;;15.00;96.40;;;;;;4890127;29;20049;-76
2023/01/08 14:29:56;;;;;;;1.33;0.50;;;14.30;97.20;;;;;;4889905;29;19908;-77
2023/01/08 14:32:24;;;;;;;1.02;0.40;;;13.80;98.20;;;;;;4888432;29;20037;-75
2023/01/08 14:34:52;;;;;;;1.10;0.40;;;13.20;99.10;;;;;;4884026;29;20353;-74
2023/01/08 14:37:18;;;;;;;1.33;0.50;;;13.00;99.50;;;;;;4888276;29;20052;-74
2023/01/08 14:39:47;;;;;;;1.30;0.40;;;12.80;99.90;;;;;;4919373;29;20037;-74
2023/01/08 14:45:21;;;;;;;1.25;0.40;;;12.30;99.90;;;;;;4888758;29;20165;-72
2023/01/08 14:47:52;;;;;;;1.52;0.30;;;12.20;99.90;;;;;;4888577;29;20033;-72
2023/01/08 14:50:24;;;;;;;1.40;0.40;;;12.10;99.90;;;;;;4888394;29;20079;-74
2023/01/08 14:52:53;;;;;;;1.40;0.50;;;12.00;99.90;;;;;;4888968;29;20048;-74
2023/01/08 14:55:19;;;;;;;;;;;12.00;99.90;;;;;;4887786;29;20328;-75
2023/01/08 14:57:47;;;;;;;3.55;2.42;;;11.90;99.90;;;;;;4888601;29;19912;-74
2023/01/08 15:00:31;;;;;;;2.10;0.90;;;11.80;99.90;;;;;;4887925;29;20199;-74
2023/01/08 15:02:57;;;;;;;2.10;0.60;;;11.80;99.90;;;;;;4918064;29;20064;-74
2023/01/08 15:05:31;;;;;;;0.95;0.40;;;11.80;99.90;;;;;;4887433;29;20096;-76
2023/01/08 15:08:02;;;;;;;2.80;0.50;;;11.60;99.90;;;;;;4888214;29;20041;-73
2023/01/08 15:10:37;;;;;;;1.48;0.40;;;11.60;99.90;;;;;;4887835;29;20029;-73
2023/01/08 15:13:06;;;;;;;1.48;0.77;;;11.60;99.90;;;;;;4888311;29;20037;-74
2023/01/08 15:15:34;;;;;;;1.00;0.30;;;11.60;99.90;;;;;;4887527;29;20051;-72
2023/01/08 15:18:00;;;;;;;1.85;0.55;;;11.50;99.90;;;;;;4888751;29;20047;-73
2023/01/08 15:20:33;;;;;;;1.67;0.70;;;11.60;99.90;;;;;;4886500;29;20033;-72
2023/01/08 15:22:58;;;;;;;1.00;0.30;;;11.50;99.90;;;;;;4888344;29;20044;-73
2023/01/08 15:25:28;;;;;;;2.53;0.60;;;11.50;99.90;;;;;;4887818;29;20056;-72
2023/01/08 15:28:02;;;;;;;1.55;0.50;;;11.40;99.90;;;;;;4888289;29;20048;-72
2023/01/08 15:30:42;;;;;;;3.58;0.85;;;11.30;99.90;;;;;;4887704;29;20219;-73
2023/01/08 15:33:22;;;;;;;2.03;0.88;;;11.10;99.90;;;;;;4888242;29;20065;-74
2023/01/08 15:35:48;;;;;;;2.53;1.08;;;11.00;99.90;;;;;;4888071;29;20124;-72
2023/01/08 15:38:15;;;;;;;2.47;1.10;;;10.90;99.90;;;;;;4887451;29;20040;-74
2023/01/08 15:40:41;;;;;;;4.00;1.65;;;10.70;99.90;;;;;;4888122;29;20247;-73
2023/01/08 15:43:13;;;;;;;2.72;1.20;;;10.60;99.90;;;;;;4887283;29;20081;-73
2023/01/08 15:45:41;;;;;;;3.05;1.50;;;10.50;99.90;;;;;;4917826;29;20036;-72
2023/01/08 15:48:08;;;;;;;3.05;1.10;;;10.40;99.90;;;;;;4887846;29;20036;-74
2023/01/08 15:50:38;;;;;;;5.05;2.42;;;10.20;99.90;;;;;;4887665;29;20037;-74
2023/01/08 15:53:17;;;;;;;3.22;1.30;;;10.20;99.90;;;;;;4897178;29;20063;-73
2023/01/08 15:55:44;;;;;;;4.05;1.35;;;10.20;99.90;;;;;;4891055;29;20033;-73
2023/01/08 15:58:11;;;;;;;3.07;1.40;;;10.20;99.90;;;;;;4891480;29;20048;-75
2023/01/08 16:00:37;;;;;;;3.58;1.60;;;10.20;99.90;;;;;;4891202;29;20052;-74
2023/01/08 16:03:05;;;;;;;2.95;1.42;;;10.30;99.90;;;;;;4890889;29;20040;-74
2023/01/08 16:05:32;;;;;;;2.10;1.00;;;10.30;99.90;;;;;;4891390;29;20037;-73
2023/01/08 16:07:58;;;;;;;2.22;0.93;;;10.40;99.90;;;;;;4891441;29;20237;-74
2023/01/08 16:10:24;;;;;;;2.47;1.05;;;10.40;99.90;;;;;;4895942;29;20033;-75
2023/01/08 16:12:51;;;;;;;2.03;0.75;;;10.40;99.90;;;;;;4921812;29;20033;-78
2023/01/08 16:15:17;;;;;;;3.25;1.30;;;10.50;99.90;;;;;;4890997;29;20109;-75
2023/01/08 16:17:44;;;;;;;3.05;1.58;;;10.50;99.90;;;;;;4891462;29;20304;-79
2023/01/08 16:20:13;;;;;;;3.65;1.90;;;10.60;99.90;;;;;;4905623;29;20175;-80
2023/01/08 16:22:39;;;;;;;4.50;1.92;;;10.60;99.90;;;;;;4889636;29;20051;-79
2023/01/08 16:25:11;;;;;;;4.28;1.80;;;10.60;99.90;;;;;;4891215;29;20092;-79
2023/01/08 16:27:39;;;;;;;2.90;1.70;;;10.60;99.90;;;;;;4920841;29;20045;-77
2023/01/08 16:30:08;;;;;;;3.80;1.70;;;10.60;99.90;;;;;;4891473;29;20101;-78
2023/01/08 16:32:34;;;;;;;3.42;2.10;;;10.60;99.90;;;;;;4890683;29;20131;-80
2023/01/08 16:34:59;;;;;;;3.92;1.48;;;10.60;99.90;;;;;;4905899;29;20256;-79
2023/01/08 16:37:25;;;;;;;4.28;1.90;;;10.70;99.90;;;;;;4905273;29;20033;-72
2023/01/08 16:39:52;;;;;;;3.50;1.70;;;10.70;99.90;;;;;;4891081;29;20043;-72
2023/01/08 16:42:19;;;;;;;3.00;1.52;;;10.60;99.90;;;;;;4890174;29;20037;-73
2023/01/08 16:44:45;;;;;;;3.60;1.63;;;10.60;99.90;;;;;;4890567;29;20060;-73
2023/01/08 16:47:11;;;;;;;4.50;1.70;;;10.60;99.90;;;;;;4890819;29;20029;-71
2023/01/08 16:49:36;;;;;;;3.75;1.80;;;10.50;99.90;;;;;;4890440;29;20431;-76
2023/01/08 16:52:03;;;;;;;4.95;1.60;;;10.50;99.90;;;;;;4899902;29;20059;-73
2023/01/08 16:54:29;;;;;;;4.38;1.63;;;10.50;99.90;;;;;;4889759;29;20036;-73
2023/01/08 16:56:54;;;;;;;3.30;2.15;;;10.40;99.90;;;;;;4890696;29;20077;-74
2023/01/08 16:59:20;;;;;;;4.22;1.63;;;10.40;99.90;;;;;;4890440;29;20072;-72
2023/01/08 17:01:46;;;;;;;3.80;1.63;;;10.40;99.90;;;;;;4890012;29;20056;-73
2023/01/08 17:04:11;;;;;;;5.47;2.50;;;10.50;99.90;;;;;;4890839;29;20059;-72
2023/01/08 17:06:37;;;;;;;4.20;2.28;;;10.40;99.90;;;;;;4889044;29;20110;-74
2023/01/08 17:09:04;;;;;;;5.80;2.42;;;10.40;99.90;;;;;;4886737;29;20048;-72
2023/01/08 17:11:31;;;;;;;4.20;1.85;;;10.30;99.90;;;;;;4889461;29;20044;-73
2023/01/08 17:13:57;;;;;;;5.65;2.13;;;10.40;99.90;;;;;;4890268;29;20060;-72
2023/01/08 17:16:23;;;;;;;5.22;2.05;;;10.40;99.90;;;;;;4889757;29;20037;-74
2023/01/08 17:18:49;;;;;;;3.85;2.00;;;10.40;99.90;;;;;;4890284;29;20020;-72
2023/01/08 17:21:16;;;;;;;4.45;2.47;;;10.40;99.90;;;;;;4890291;29;20047;-72
2023/01/08 17:23:43;;;;;;;6.77;3.57;;;10.40;99.90;;;;;;4889921;29;20340;-71
2023/01/08 17:26:12;;;;;;;6.97;3.67;;;10.40;99.90;;;;;;4890023;29;20325;-73
2023/01/08 17:28:38;;;;;;;4.15;2.40;;;10.40;99.90;;;;;;4889500;29;20033;-71
2023/01/08 17:31:10;;;;;;;4.28;2.42;;;10.40;99.90;;;;;;4890133;29;20033;-72
2023/01/08 17:33:36;;;;;;;4.40;2.90;;;10.40;99.90;;;;;;4889450;29;20101;-73
2023/01/08 17:36:18;;;;;;;5.05;2.60;;;10.40;99.90;;;;;;4889619;29;20267;-73
2023/01/08 17:38:51;;;;;;;4.72;2.40;;;10.40;99.90;;;;;;4889597;29;20072;-73
2023/01/08 17:44:06;;;;;;;4.57;2.20;;;10.20;99.90;;;;;;4889657;29;20116;-72
2023/01/08 17:46:38;;;;;;;4.43;2.15;;;10.10;99.90;;;;;;4889141;29;20307;-73
2023/01/08 17:49:04;;;;;;;5.55;2.83;;;10.10;99.90;;;;;;4904488;29;20036;-73
2023/01/08 17:51:32;;;;;;;5.55;2.63;;;10.20;99.90;;;;;;4890192;29;20069;-73
2023/01/08 17:53:58;;;;;;;6.00;2.90;;;10.20;99.90;;;;;;4920535;29;20303;-72
2023/01/08 17:56:24;;;;;;;6.35;2.50;;;10.20;99.90;;;;;;4889446;29;20033;-71
2023/01/08 17:58:58;;;;;;;8.18;2.60;;;10.20;99.90;;;;;;4890018;29;20307;-72
2023/01/08 18:01:24;;;;;;;5.25;3.00;;;10.20;99.90;;;;;;4888973;29;20105;-72
2023/01/08 18:03:51;;;;;;;5.60;2.53;;;10.10;99.90;;;;;;4889700;29;20319;-80
2023/01/08 18:06:16;;;;;;;7.63;4.05;;;10.20;99.90;;;;;;4889451;29;20222;-76
2023/01/08 18:08:42;;;;;;;7.47;4.20;;;10.20;99.90;;;;;;4889025;29;20040;-72
2023/01/08 18:11:09;;;;;;;5.60;3.05;;;10.10;99.90;;;;;;4889097;29;20100;-74
2023/01/08 18:13:35;;;;;;;6.90;3.63;;;10.10;99.90;;;;;;4888616;29;20033;-72
2023/01/08 18:16:06;;;;;;;6.20;3.85;;;10.00;99.90;;;;;;4889392;29;20065;-73
2023/01/08 18:18:32;;;;;;;6.70;3.80;;;10.00;99.90;;;;;;4888502;29;20135;-74
2023/01/08 18:20:58;;;;;;;6.68;3.60;;;9.90;99.90;;;;;;4889513;29;20039;-72
2023/01/08 18:23:27;;;;;;;7.72;4.22;;;9.90;99.90;;;;;;4888513;29;20230;-71
2023/01/08 18:25:52;;;;;;;;;;;9.80;99.90;;;;;;4889950;29;20160;-71
2023/01/08 18:28:21;;;;;;;7.15;3.65;;;9.80;99.90;;;;;;4889101;29;19916;-73
2023/01/08 18:30:47;;;;;;;6.15;3.42;;;9.70;99.90;;;;;;4888414;29;20036;-75
2023/01/08 18:33:14;;;;;;;5.60;3.15;;;9.70;99.90;;;;;;4889111;29;20040;-71
2023/01/08 18:35:40;;;;;;;6.35;3.22;;;9.60;99.90;;;;;;4888757;29;20044;-74
2023/01/08 18:38:14;;;;;;;4.68;3.00;;;9.60;99.90;;;;;;4888966;29;20037;-73
2023/01/08 18:40:42;;;;;;;6.97;3.40;;;9.60;99.90;;;;;;4889076;29;20085;-73
2023/01/08 18:43:08;;;;;;;7.38;3.53;;;9.60;99.90;;;;;;4889043;29;20366;-73
2023/01/08 18:45:34;;;;;;;6.32;3.50;;;9.60;99.90;;;;;;4888438;29;20045;-72
2023/01/08 18:48:01;;;;;;;6.93;3.80;;;9.60;99.90;;;;;;4903337;29;20279;-72
2023/01/08 18:50:27;;;;;;;5.35;3.17;;;9.60;99.90;;;;;;4888172;29;20311;-73
2023/01/08 18:52:54;;;;;;;6.38;3.70;;;9.60;99.90;;;;;;4888590;29;20060;-72
2023/01/08 18:55:19;;;;;;;5.32;3.40;;;9.60;99.90;;;;;;4888808;29;20323;-72
2023/01/08 18:57:49;;;;;;;6.72;3.78;;;9.60;99.90;;;;;;4888274;29;20196;-72
2023/01/08 19:00:16;;;;;;;7.28;3.67;;;9.60;99.90;;;;;;4888419;29;20048;-74
2023/01/08 19:02:42;;;;;;;7.22;3.65;;;9.60;99.90;;;;;;4887383;29;20052;-72
2023/01/08 19:05:10;;;;;;;10.98;4.30;;;9.50;99.90;;;;;;4888422;29;20111;-72
2023/01/08 19:07:36;;;;;;;11.93;6.75;;;9.50;99.90;;;;;;4887748;29;20116;-72
2023/01/08 19:10:02;;;;;;;23.50;10.43;;;9.50;99.90;;;;;;4888137;29;20210;-71
2023/01/08 19:12:30;;;;;;;57.67;21.25;;;9.60;99.90;;;;;;4888297;29;20053;-71
2023/01/08 19:14:57;;;;;;;;;;;9.60;99.90;;;;;;4888754;29;20037;-72